sensor_id;sensor_type;location;lat;lon;timestamp;pressure;altitude;pressure_sealevel;temperature
66027;BMP280;56312;55.976;37.136;2023-05-19T19:54:38;99901.59;;;18.28
66027;BMP280;56312;55.976;37.136;2023-05-19T19:59:44;99892.66;;;18.33
66027;BMP280;56312;55.976;37.136;2023-05-19T20:04:50;99903.75;;;18.37
66027;BMP280;56312;55.976;37.136;2023-05-19T20:09:57;99899.13;;;18.42
66027;BMP280;56312;55.976;37.136;2023-05-19T20:15:04;99902.41;;;18.45
66027;BMP280;56312;55.976;37.136;2023-05-19T20:20:11;99914.16;;;18.52
66027;BMP280;56312;55.976;37.136;2023-05-19T20:25:18;99904.41;;;18.55
66027;BMP280;56312;55.976;37.136;2023-05-19T20:30:24;99912.66;;;18.63
66027;BMP280;56312;55.976;37.136;2023-05-19T20:35:31;99907.22;;;18.68
66027;BMP280;56312;55.976;37.136;2023-05-19T20:40:37;99913.00;;;18.72
66027;BMP280;56312;55.976;37.136;2023-05-19T20:45:44;99906.97;;;18.72
66027;BMP280;56312;55.976;37.136;2023-05-19T20:50:52;99908.97;;;18.67
66027;BMP280;56312;55.976;37.136;2023-05-19T20:55:58;99919.25;;;18.38
66027;BMP280;56312;55.976;37.136;2023-05-19T21:01:05;99923.25;;;18.28
66027;BMP280;56312;55.976;37.136;2023-05-19T21:06:11;99926.88;;;18.26
66027;BMP280;56312;55.976;37.136;2023-05-19T21:11:17;99921.97;;;18.20
66027;BMP280;56312;55.976;37.136;2023-05-19T21:16:24;99930.84;;;18.16
66027;BMP280;56312;55.976;37.136;2023-05-19T21:21:31;99918.16;;;18.42
66027;BMP280;56312;55.976;37.136;2023-05-19T21:26:38;99921.63;;;18.58
66027;BMP280;56312;55.976;37.136;2023-05-19T21:31:45;99922.91;;;18.66
66027;BMP280;56312;55.976;37.136;2023-05-19T21:36:52;99918.28;;;18.71
66027;BMP280;56312;55.976;37.136;2023-05-19T21:41:58;99917.19;;;18.75
66027;BMP280;56312;55.976;37.136;2023-05-19T21:47:04;99920.41;;;18.80
66027;BMP280;56312;55.976;37.136;2023-05-19T21:52:11;99909.81;;;18.83
66027;BMP280;56312;55.976;37.136;2023-05-19T21:57:17;99916.59;;;18.87
66027;BMP280;56312;55.976;37.136;2023-05-19T22:02:24;99905.81;;;18.93
66027;BMP280;56312;55.976;37.136;2023-05-19T22:07:31;99903.78;;;18.97
66027;BMP280;56312;55.976;37.136;2023-05-19T22:12:37;99908.56;;;19.05
66027;BMP280;56312;55.976;37.136;2023-05-19T22:17:44;99909.34;;;19.07
66027;BMP280;56312;55.976;37.136;2023-05-19T22:22:50;99910.88;;;19.11
66027;BMP280;56312;55.976;37.136;2023-05-19T22:27:57;99905.47;;;19.14
66027;BMP280;56312;55.976;37.136;2023-05-19T22:33:05;99920.00;;;19.18
66027;BMP280;56312;55.976;37.136;2023-05-19T22:38:12;99914.53;;;19.22
66027;BMP280;56312;55.976;37.136;2023-05-19T22:43:19;99915.13;;;19.27
66027;BMP280;56312;55.976;37.136;2023-05-19T22:48:25;99911.69;;;19.26
66027;BMP280;56312;55.976;37.136;2023-05-19T22:53:32;99912.50;;;19.27
66027;BMP280;56312;55.976;37.136;2023-05-19T22:58:38;99915.69;;;19.32
66027;BMP280;56312;55.976;37.136;2023-05-19T23:03:44;99914.84;;;19.31
66027;BMP280;56312;55.976;37.136;2023-05-19T23:09:00;99911.25;;;19.34
66027;BMP280;56312;55.976;37.136;2023-05-19T23:14:08;99906.59;;;19.39
66027;BMP280;56312;55.976;37.136;2023-05-19T23:19:14;99902.34;;;19.38
66027;BMP280;56312;55.976;37.136;2023-05-19T23:24:21;99904.75;;;19.41
66027;BMP280;56312;55.976;37.136;2023-05-19T23:29:28;99911.38;;;19.46
66027;BMP280;56312;55.976;37.136;2023-05-19T23:34:34;99912.97;;;19.49
66027;BMP280;56312;55.976;37.136;2023-05-19T23:39:40;99914.66;;;19.50
66027;BMP280;56312;55.976;37.136;2023-05-19T23:44:46;99913.56;;;19.53
66027;BMP280;56312;55.976;37.136;2023-05-19T23:49:53;99917.84;;;19.54
66027;BMP280;56312;55.976;37.136;2023-05-19T23:54:59;99908.06;;;19.58
